Wiggins, Colorado
Current Conditions -  °F | °C
As of 10:55 AM on Tuesday 21 Oct 2014 (Local Time) from KFMM Reporting Station
Clear Clear  
Wind Chill: 62°   Ceiling: Unl
Heat Index: 62°   Visibility: 10mi
Dew Point: 40°   Wind: 5mph
Humidity: 44%   Direction: 260°W
Pressure: 30"   Gusts: NA
Location:  40.23°N, 104.07°W
Report Text: KFMM 211655Z AUTO 26004KT 10SM CLR 17/05 A3000 RMK AO2 T01680045
Loading
Personal Weather Stations






























Interactive Weather Map
Tropical Storm Tracking
New forecast layout! Learn more

10-Day Weather Forecast

Advertisements
Track Severe Weather on mobile